sensor_id;sensor_type;location;lat;lon;timestamp;temperature;humidity
16829;DHT22;8531;48.078;11.968;2023-12-29T00:01:51;8.70;99.90
16829;DHT22;8531;48.078;11.968;2023-12-29T00:04:17;8.80;99.90
16829;DHT22;8531;48.078;11.968;2023-12-29T00:06:43;8.70;99.90
16829;DHT22;8531;48.078;11.968;2023-12-29T00:09:08;8.60;99.90
16829;DHT22;8531;48.078;11.968;2023-12-29T00:11:34;8.60;99.90
16829;DHT22;8531;48.078;11.968;2023-12-29T00:14:00;8.60;99.90
16829;DHT22;8531;48.078;11.968;2023-12-29T00:16:27;8.60;99.90
16829;DHT22;8531;48.078;11.968;2023-12-29T00:18:53;8.60;99.90
16829;DHT22;8531;48.078;11.968;2023-12-29T00:21:19;8.50;99.90
16829;DHT22;8531;48.078;11.968;2023-12-29T00:23:44;8.40;99.90
16829;DHT22;8531;48.078;11.968;2023-12-29T00:26:10;8.30;99.90
16829;DHT22;8531;48.078;11.968;2023-12-29T00:28:36;8.20;99.90
16829;DHT22;8531;48.078;11.968;2023-12-29T00:31:08;8.10;99.90
16829;DHT22;8531;48.078;11.968;2023-12-29T00:33:34;8.00;99.90
16829;DHT22;8531;48.078;11.968;2023-12-29T00:36:00;7.90;99.90
16829;DHT22;8531;48.078;11.968;2023-12-29T00:38:27;7.80;99.90
16829;DHT22;8531;48.078;11.968;2023-12-29T00:40:53;7.80;99.90
16829;DHT22;8531;48.078;11.968;2023-12-29T00:43:19;7.70;99.90
16829;DHT22;8531;48.078;11.968;2023-12-29T00:45:45;7.60;99.90
16829;DHT22;8531;48.078;11.968;2023-12-29T00:48:10;7.70;99.90
16829;DHT22;8531;48.078;11.968;2023-12-29T00:50:36;7.70;99.90
16829;DHT22;8531;48.078;11.968;2023-12-29T00:53:02;7.70;99.90
16829;DHT22;8531;48.078;11.968;2023-12-29T00:55:27;7.60;99.90
16829;DHT22;8531;48.078;11.968;2023-12-29T00:57:53;7.60;99.90
16829;DHT22;8531;48.078;11.968;2023-12-29T01:00:19;7.60;99.90
16829;DHT22;8531;48.078;11.968;2023-12-29T01:02:45;7.70;99.90
16829;DHT22;8531;48.078;11.968;2023-12-29T01:05:15;7.70;99.90
16829;DHT22;8531;48.078;11.968;2023-12-29T01:07:41;7.60;99.90
16829;DHT22;8531;48.078;11.968;2023-12-29T01:10:07;7.60;99.90
16829;DHT22;8531;48.078;11.968;2023-12-29T01:12:33;7.60;99.90
16829;DHT22;8531;48.078;11.968;2023-12-29T01:14:59;7.60;99.90
16829;DHT22;8531;48.078;11.968;2023-12-29T01:17:24;7.60;99.90
16829;DHT22;8531;48.078;11.968;2023-12-29T01:19:52;7.40;99.90
16829;DHT22;8531;48.078;11.968;2023-12-29T01:22:18;7.40;99.90
16829;DHT22;8531;48.078;11.968;2023-12-29T01:24:44;7.30;99.90
16829;DHT22;8531;48.078;11.968;2023-12-29T01:27:10;7.20;99.90
16829;DHT22;8531;48.078;11.968;2023-12-29T01:29:35;7.00;99.90
16829;DHT22;8531;48.078;11.968;2023-12-29T01:32:01;7.00;99.90
16829;DHT22;8531;48.078;11.968;2023-12-29T01:34:29;6.90;99.90
16829;DHT22;8531;48.078;11.968;2023-12-29T01:36:59;6.80;99.90
16829;DHT22;8531;48.078;11.968;2023-12-29T01:39:24;6.80;99.90
16829;DHT22;8531;48.078;11.968;2023-12-29T01:41:50;6.80;99.90
16829;DHT22;8531;48.078;11.968;2023-12-29T01:44:20;6.90;99.90
16829;DHT22;8531;48.078;11.968;2023-12-29T01:46:47;6.90;99.90
16829;DHT22;8531;48.078;11.968;2023-12-29T01:49:16;7.00;99.90
16829;DHT22;8531;48.078;11.968;2023-12-29T01:51:49;7.00;99.90
16829;DHT22;8531;48.078;11.968;2023-12-29T01:54:15;7.00;99.90
16829;DHT22;8531;48.078;11.968;2023-12-29T01:56:41;7.00;99.90
16829;DHT22;8531;48.078;11.968;2023-12-29T01:59:07;7.00;99.90
16829;DHT22;8531;48.078;11.968;2023-12-29T02:01:33;7.00;99.90
16829;DHT22;8531;48.078;11.968;2023-12-29T02:03:59;7.10;99.90
16829;DHT22;8531;48.078;11.968;2023-12-29T02:06:26;7.10;99.90
16829;DHT22;8531;48.078;11.968;2023-12-29T02:08:52;7.20;99.90
16829;DHT22;8531;48.078;11.968;2023-12-29T02:11:18;7.20;99.90
16829;DHT22;8531;48.078;11.968;2023-12-29T02:13:44;7.40;99.90
16829;DHT22;8531;48.078;11.968;2023-12-29T02:18:59;7.40;99.90
16829;DHT22;8531;48.078;11.968;2023-12-29T02:21:26;7.50;99.90
16829;DHT22;8531;48.078;11.968;2023-12-29T02:23:52;7.70;99.90
16829;DHT22;8531;48.078;11.968;2023-12-29T02:26:20;7.70;99.90
16829;DHT22;8531;48.078;11.968;2023-12-29T02:28:53;7.90;99.90
16829;DHT22;8531;48.078;11.968;2023-12-29T02:31:24;8.00;99.90
16829;DHT22;8531;48.078;11.968;2023-12-29T02:33:52;7.90;99.90
16829;DHT22;8531;48.078;11.968;2023-12-29T02:36:19;8.00;99.90
16829;DHT22;8531;48.078;11.968;2023-12-29T02:38:45;8.10;99.90
16829;DHT22;8531;48.078;11.968;2023-12-29T02:41:11;8.00;99.90
16829;DHT22;8531;48.078;11.968;2023-12-29T02:43:38;8.00;99.90
16829;DHT22;8531;48.078;11.968;2023-12-29T02:46:04;8.10;99.90
16829;DHT22;8531;48.078;11.968;2023-12-29T02:48:30;8.10;99.90
16829;DHT22;8531;48.078;11.968;2023-12-29T02:50:55;8.10;99.90
16829;DHT22;8531;48.078;11.968;2023-12-29T02:53:21;8.10;99.90
16829;DHT22;8531;48.078;11.968;2023-12-29T02:55:47;8.20;99.90
16829;DHT22;8531;48.078;11.968;2023-12-29T02:58:12;8.20;99.90
16829;DHT22;8531;48.078;11.968;2023-12-29T03:00:38;8.20;99.90
16829;DHT22;8531;48.078;11.968;2023-12-29T03:03:04;8.30;99.90
16829;DHT22;8531;48.078;11.968;2023-12-29T03:05:30;8.20;99.90
16829;DHT22;8531;48.078;11.968;2023-12-29T03:07:56;8.20;99.90
16829;DHT22;8531;48.078;11.968;2023-12-29T03:10:22;8.20;99.90
16829;DHT22;8531;48.078;11.968;2023-12-29T03:12:49;8.10;99.90
16829;DHT22;8531;48.078;11.968;2023-12-29T03:15:14;8.30;99.90
16829;DHT22;8531;48.078;11.968;2023-12-29T03:17:40;8.30;99.90
16829;DHT22;8531;48.078;11.968;2023-12-29T03:20:06;8.40;99.90
16829;DHT22;8531;48.078;11.968;2023-12-29T03:22:33;8.40;99.90
16829;DHT22;8531;48.078;11.968;2023-12-29T03:24:59;8.50;99.90
16829;DHT22;8531;48.078;11.968;2023-12-29T03:27:24;8.50;99.90
16829;DHT22;8531;48.078;11.968;2023-12-29T03:29:50;8.60;99.90
16829;DHT22;8531;48.078;11.968;2023-12-29T03:32:16;8.60;99.90
16829;DHT22;8531;48.078;11.968;2023-12-29T03:34:42;8.60;99.90
16829;DHT22;8531;48.078;11.968;2023-12-29T03:37:08;8.60;99.90
16829;DHT22;8531;48.078;11.968;2023-12-29T03:39:35;8.60;99.90
16829;DHT22;8531;48.078;11.968;2023-12-29T03:42:01;8.60;99.90
16829;DHT22;8531;48.078;11.968;2023-12-29T03:44:26;8.50;99.90
16829;DHT22;8531;48.078;11.968;2023-12-29T03:46:52;8.50;99.90
16829;DHT22;8531;48.078;11.968;2023-12-29T03:49:18;8.50;99.90
16829;DHT22;8531;48.078;11.968;2023-12-29T03:51:45;8.40;99.90
16829;DHT22;8531;48.078;11.968;2023-12-29T03:54:11;8.40;99.90
16829;DHT22;8531;48.078;11.968;2023-12-29T03:56:37;8.40;99.90
16829;DHT22;8531;48.078;11.968;2023-12-29T03:59:02;8.40;99.90
16829;DHT22;8531;48.078;11.968;2023-12-29T04:01:28;8.40;99.90
16829;DHT22;8531;48.078;11.968;2023-12-29T04:03:54;8.40;99.90
16829;DHT22;8531;48.078;11.968;2023-12-29T04:06:19;8.30;99.90
16829;DHT22;8531;48.078;11.968;2023-12-29T04:08:45;8.20;99.90
16829;DHT22;8531;48.078;11.968;2023-12-29T04:11:11;8.10;99.90
16829;DHT22;8531;48.078;11.968;2023-12-29T04:13:37;8.10;99.90
16829;DHT22;8531;48.078;11.968;2023-12-29T04:16:03;8.00;99.90
16829;DHT22;8531;48.078;11.968;2023-12-29T04:18:29;8.00;99.90
16829;DHT22;8531;48.078;11.968;2023-12-29T04:20:54;7.90;99.90
16829;DHT22;8531;48.078;11.968;2023-12-29T04:23:20;8.00;99.90
16829;DHT22;8531;48.078;11.968;2023-12-29T04:25:46;8.00;99.90
16829;DHT22;8531;48.078;11.968;2023-12-29T04:28:11;7.90;99.90
16829;DHT22;8531;48.078;11.968;2023-12-29T04:30:37;7.90;99.90
16829;DHT22;8531;48.078;11.968;2023-12-29T04:33:03;7.90;99.90
16829;DHT22;8531;48.078;11.968;2023-12-29T04:35:29;7.90;99.90
16829;DHT22;8531;48.078;11.968;2023-12-29T04:37:54;7.90;99.90
16829;DHT22;8531;48.078;11.968;2023-12-29T04:40:20;7.90;99.90
16829;DHT22;8531;48.078;11.968;2023-12-29T04:42:45;8.00;99.90
16829;DHT22;8531;48.078;11.968;2023-12-29T04:45:11;7.90;99.90
16829;DHT22;8531;48.078;11.968;2023-12-29T04:47:37;7.90;99.90
16829;DHT22;8531;48.078;11.968;2023-12-29T04:50:03;7.90;99.90
16829;DHT22;8531;48.078;11.968;2023-12-29T04:52:31;8.00;99.90
16829;DHT22;8531;48.078;11.968;2023-12-29T04:54:56;8.00;99.90
16829;DHT22;8531;48.078;11.968;2023-12-29T04:57:22;8.00;99.90
16829;DHT22;8531;48.078;11.968;2023-12-29T04:59:48;7.90;99.90
16829;DHT22;8531;48.078;11.968;2023-12-29T05:02:13;7.70;99.90
16829;DHT22;8531;48.078;11.968;2023-12-29T05:04:39;7.60;99.90
16829;DHT22;8531;48.078;11.968;2023-12-29T05:07:09;7.40;99.90
16829;DHT22;8531;48.078;11.968;2023-12-29T05:09:35;7.20;99.90
16829;DHT22;8531;48.078;11.968;2023-12-29T05:12:01;7.10;99.90
16829;DHT22;8531;48.078;11.968;2023-12-29T05:14:26;7.10;99.90
16829;DHT22;8531;48.078;11.968;2023-12-29T05:16:52;7.00;99.90
16829;DHT22;8531;48.078;11.968;2023-12-29T05:19:18;7.00;99.90
16829;DHT22;8531;48.078;11.968;2023-12-29T05:21:43;7.00;99.90
16829;DHT22;8531;48.078;11.968;2023-12-29T05:24:09;6.90;99.90
16829;DHT22;8531;48.078;11.968;2023-12-29T05:26:35;6.90;99.90
16829;DHT22;8531;48.078;11.968;2023-12-29T05:29:01;6.90;99.90
16829;DHT22;8531;48.078;11.968;2023-12-29T05:31:27;7.00;99.90
16829;DHT22;8531;48.078;11.968;2023-12-29T05:33:53;7.00;99.90
16829;DHT22;8531;48.078;11.968;2023-12-29T05:36:20;7.00;99.90
16829;DHT22;8531;48.078;11.968;2023-12-29T05:38:46;7.00;99.90
16829;DHT22;8531;48.078;11.968;2023-12-29T05:41:15;7.00;99.90
16829;DHT22;8531;48.078;11.968;2023-12-29T05:43:41;7.00;99.90
16829;DHT22;8531;48.078;11.968;2023-12-29T05:46:10;6.90;99.90
16829;DHT22;8531;48.078;11.968;2023-12-29T05:48:39;6.90;99.90
16829;DHT22;8531;48.078;11.968;2023-12-29T05:51:13;6.90;99.90
16829;DHT22;8531;48.078;11.968;2023-12-29T05:53:41;6.80;99.90
16829;DHT22;8531;48.078;11.968;2023-12-29T05:56:08;6.80;99.90
16829;DHT22;8531;48.078;11.968;2023-12-29T05:58:34;6.80;99.90
16829;DHT22;8531;48.078;11.968;2023-12-29T06:01:00;6.80;99.90
16829;DHT22;8531;48.078;11.968;2023-12-29T06:03:26;6.80;99.90
16829;DHT22;8531;48.078;11.968;2023-12-29T06:05:52;6.80;99.90
16829;DHT22;8531;48.078;11.968;2023-12-29T06:08:17;6.80;99.90
16829;DHT22;8531;48.078;11.968;2023-12-29T06:10:43;6.80;99.90
16829;DHT22;8531;48.078;11.968;2023-12-29T06:13:09;6.80;99.90
16829;DHT22;8531;48.078;11.968;2023-12-29T06:15:34;6.90;99.90
16829;DHT22;8531;48.078;11.968;2023-12-29T06:18:01;6.80;99.90
16829;DHT22;8531;48.078;11.968;2023-12-29T06:20:27;6.80;99.90
16829;DHT22;8531;48.078;11.968;2023-12-29T06:22:53;6.90;99.90
16829;DHT22;8531;48.078;11.968;2023-12-29T06:25:19;6.90;99.90
16829;DHT22;8531;48.078;11.968;2023-12-29T06:27:44;6.90;99.90
16829;DHT22;8531;48.078;11.968;2023-12-29T06:30:10;6.90;99.90
16829;DHT22;8531;48.078;11.968;2023-12-29T06:32:36;6.90;99.90
16829;DHT22;8531;48.078;11.968;2023-12-29T06:35:02;6.90;99.90
16829;DHT22;8531;48.078;11.968;2023-12-29T06:37:28;6.90;99.90
16829;DHT22;8531;48.078;11.968;2023-12-29T06:39:54;6.90;99.90
16829;DHT22;8531;48.078;11.968;2023-12-29T06:42:19;6.90;99.90
16829;DHT22;8531;48.078;11.968;2023-12-29T06:44:46;6.80;99.90
16829;DHT22;8531;48.078;11.968;2023-12-29T06:47:11;6.80;99.90
16829;DHT22;8531;48.078;11.968;2023-12-29T06:49:38;6.70;99.90
16829;DHT22;8531;48.078;11.968;2023-12-29T06:52:04;6.70;99.90
16829;DHT22;8531;48.078;11.968;2023-12-29T06:54:30;6.60;99.90
16829;DHT22;8531;48.078;11.968;2023-12-29T06:56:56;6.60;99.90
16829;DHT22;8531;48.078;11.968;2023-12-29T06:59:22;6.60;99.90
16829;DHT22;8531;48.078;11.968;2023-12-29T07:01:48;6.60;99.90
16829;DHT22;8531;48.078;11.968;2023-12-29T07:04:14;6.60;99.90
16829;DHT22;8531;48.078;11.968;2023-12-29T07:06:41;6.60;99.90
16829;DHT22;8531;48.078;11.968;2023-12-29T07:09:07;6.60;99.90
16829;DHT22;8531;48.078;11.968;2023-12-29T07:11:34;6.60;99.90
16829;DHT22;8531;48.078;11.968;2023-12-29T07:14:00;6.60;99.90
16829;DHT22;8531;48.078;11.968;2023-12-29T07:16:25;6.70;99.90
16829;DHT22;8531;48.078;11.968;2023-12-29T07:18:51;6.70;99.90
16829;DHT22;8531;48.078;11.968;2023-12-29T07:21:17;6.70;99.90
16829;DHT22;8531;48.078;11.968;2023-12-29T07:23:43;6.70;99.90
16829;DHT22;8531;48.078;11.968;2023-12-29T07:26:09;6.70;99.90
16829;DHT22;8531;48.078;11.968;2023-12-29T07:28:35;6.70;99.90
16829;DHT22;8531;48.078;11.968;2023-12-29T07:31:01;6.80;99.90
16829;DHT22;8531;48.078;11.968;2023-12-29T07:33:27;6.90;99.90
16829;DHT22;8531;48.078;11.968;2023-12-29T07:35:52;6.80;99.90
16829;DHT22;8531;48.078;11.968;2023-12-29T07:38:18;6.90;99.90
16829;DHT22;8531;48.078;11.968;2023-12-29T07:40:44;6.90;99.90
16829;DHT22;8531;48.078;11.968;2023-12-29T07:43:10;6.80;99.90
16829;DHT22;8531;48.078;11.968;2023-12-29T07:45:35;6.90;99.90
16829;DHT22;8531;48.078;11.968;2023-12-29T07:48:03;6.90;99.90
16829;DHT22;8531;48.078;11.968;2023-12-29T07:50:28;7.00;99.90
16829;DHT22;8531;48.078;11.968;2023-12-29T07:52:54;7.00;99.90
16829;DHT22;8531;48.078;11.968;2023-12-29T07:55:20;7.00;99.90
16829;DHT22;8531;48.078;11.968;2023-12-29T07:57:45;7.10;99.90
16829;DHT22;8531;48.078;11.968;2023-12-29T08:00:14;7.10;99.90
16829;DHT22;8531;48.078;11.968;2023-12-29T08:02:40;7.10;99.90
16829;DHT22;8531;48.078;11.968;2023-12-29T08:05:05;7.10;99.90
16829;DHT22;8531;48.078;11.968;2023-12-29T08:07:34;7.10;99.90
16829;DHT22;8531;48.078;11.968;2023-12-29T08:10:00;7.00;99.90
16829;DHT22;8531;48.078;11.968;2023-12-29T08:12:25;7.00;99.90
16829;DHT22;8531;48.078;11.968;2023-12-29T08:14:51;7.00;99.90
16829;DHT22;8531;48.078;11.968;2023-12-29T08:17:17;7.00;99.90
16829;DHT22;8531;48.078;11.968;2023-12-29T08:19:43;7.10;99.90
16829;DHT22;8531;48.078;11.968;2023-12-29T08:22:09;7.10;99.90
16829;DHT22;8531;48.078;11.968;2023-12-29T08:24:34;7.30;99.90
16829;DHT22;8531;48.078;11.968;2023-12-29T08:27:00;7.40;99.90
16829;DHT22;8531;48.078;11.968;2023-12-29T08:29:25;7.50;99.90
16829;DHT22;8531;48.078;11.968;2023-12-29T08:31:51;7.70;99.90
16829;DHT22;8531;48.078;11.968;2023-12-29T08:34:18;7.80;99.90
16829;DHT22;8531;48.078;11.968;2023-12-29T08:36:43;8.00;99.90
16829;DHT22;8531;48.078;11.968;2023-12-29T08:39:09;8.10;99.90
16829;DHT22;8531;48.078;11.968;2023-12-29T08:41:34;8.20;99.90
16829;DHT22;8531;48.078;11.968;2023-12-29T08:44:00;8.30;99.90
16829;DHT22;8531;48.078;11.968;2023-12-29T08:46:26;8.40;99.90
16829;DHT22;8531;48.078;11.968;2023-12-29T08:48:52;8.50;99.90
16829;DHT22;8531;48.078;11.968;2023-12-29T08:51:19;8.60;99.90
16829;DHT22;8531;48.078;11.968;2023-12-29T08:53:44;8.70;99.90
16829;DHT22;8531;48.078;11.968;2023-12-29T08:56:10;8.70;99.90
16829;DHT22;8531;48.078;11.968;2023-12-29T08:58:35;8.80;99.90
16829;DHT22;8531;48.078;11.968;2023-12-29T09:01:01;8.90;99.90
16829;DHT22;8531;48.078;11.968;2023-12-29T09:03:27;9.00;99.90
16829;DHT22;8531;48.078;11.968;2023-12-29T09:05:53;9.10;99.90
16829;DHT22;8531;48.078;11.968;2023-12-29T09:08:19;9.10;99.90
16829;DHT22;8531;48.078;11.968;2023-12-29T09:10:45;9.20;99.90
16829;DHT22;8531;48.078;11.968;2023-12-29T09:13:11;9.30;99.90
16829;DHT22;8531;48.078;11.968;2023-12-29T09:15:36;9.30;99.90
16829;DHT22;8531;48.078;11.968;2023-12-29T09:18:02;9.30;99.90
16829;DHT22;8531;48.078;11.968;2023-12-29T09:20:28;9.50;99.90
16829;DHT22;8531;48.078;11.968;2023-12-29T09:22:54;9.50;99.90
16829;DHT22;8531;48.078;11.968;2023-12-29T09:25:21;9.50;99.90
16829;DHT22;8531;48.078;11.968;2023-12-29T09:27:46;9.60;99.90
16829;DHT22;8531;48.078;11.968;2023-12-29T09:30:14;9.70;99.90
16829;DHT22;8531;48.078;11.968;2023-12-29T09:32:40;9.80;99.90
16829;DHT22;8531;48.078;11.968;2023-12-29T09:35:06;9.90;99.90
16829;DHT22;8531;48.078;11.968;2023-12-29T09:37:31;9.90;99.90
16829;DHT22;8531;48.078;11.968;2023-12-29T09:39:57;10.00;99.90
16829;DHT22;8531;48.078;11.968;2023-12-29T09:42:24;10.00;99.90
16829;DHT22;8531;48.078;11.968;2023-12-29T09:44:52;10.00;99.90
16829;DHT22;8531;48.078;11.968;2023-12-29T09:47:23;10.00;99.90
16829;DHT22;8531;48.078;11.968;2023-12-29T09:49:49;10.00;99.90
16829;DHT22;8531;48.078;11.968;2023-12-29T09:52:17;10.10;99.90
16829;DHT22;8531;48.078;11.968;2023-12-29T09:54:44;10.10;99.90
16829;DHT22;8531;48.078;11.968;2023-12-29T09:57:10;10.10;99.90
16829;DHT22;8531;48.078;11.968;2023-12-29T09:59:38;10.10;99.90
16829;DHT22;8531;48.078;11.968;2023-12-29T10:02:05;10.10;99.90
16829;DHT22;8531;48.078;11.968;2023-12-29T10:04:32;10.10;99.90
16829;DHT22;8531;48.078;11.968;2023-12-29T10:07:02;10.10;99.90
16829;DHT22;8531;48.078;11.968;2023-12-29T10:09:30;10.10;99.90
16829;DHT22;8531;48.078;11.968;2023-12-29T10:11:57;10.20;99.90
16829;DHT22;8531;48.078;11.968;2023-12-29T10:14:57;10.20;99.90
16829;DHT22;8531;48.078;11.968;2023-12-29T10:25:34;10.20;99.90
16829;DHT22;8531;48.078;11.968;2023-12-29T10:28:00;10.20;99.90
16829;DHT22;8531;48.078;11.968;2023-12-29T10:30:26;10.20;99.90
16829;DHT22;8531;48.078;11.968;2023-12-29T10:32:52;10.30;99.90
16829;DHT22;8531;48.078;11.968;2023-12-29T10:35:18;10.20;99.90
16829;DHT22;8531;48.078;11.968;2023-12-29T10:37:44;10.30;99.90
16829;DHT22;8531;48.078;11.968;2023-12-29T10:40:17;10.30;99.90
16829;DHT22;8531;48.078;11.968;2023-12-29T10:42:53;10.40;99.90
16829;DHT22;8531;48.078;11.968;2023-12-29T10:45:20;10.40;99.90
16829;DHT22;8531;48.078;11.968;2023-12-29T10:47:46;10.40;99.90
16829;DHT22;8531;48.078;11.968;2023-12-29T10:50:12;10.40;99.90
16829;DHT22;8531;48.078;11.968;2023-12-29T10:52:38;10.40;99.90
16829;DHT22;8531;48.078;11.968;2023-12-29T10:55:10;10.50;99.90
16829;DHT22;8531;48.078;11.968;2023-12-29T10:57:40;10.50;99.90
16829;DHT22;8531;48.078;11.968;2023-12-29T11:00:07;10.60;99.90
16829;DHT22;8531;48.078;11.968;2023-12-29T11:02:34;10.60;99.90
16829;DHT22;8531;48.078;11.968;2023-12-29T11:05:03;10.60;99.90
16829;DHT22;8531;48.078;11.968;2023-12-29T11:07:39;10.60;99.90
16829;DHT22;8531;48.078;11.968;2023-12-29T11:10:06;10.70;99.90
16829;DHT22;8531;48.078;11.968;2023-12-29T11:12:35;10.80;99.90
16829;DHT22;8531;48.078;11.968;2023-12-29T11:15:02;10.80;99.90
16829;DHT22;8531;48.078;11.968;2023-12-29T11:17:30;10.80;99.90
16829;DHT22;8531;48.078;11.968;2023-12-29T11:20:01;10.90;99.90
16829;DHT22;8531;48.078;11.968;2023-12-29T11:22:29;10.90;99.90
16829;DHT22;8531;48.078;11.968;2023-12-29T11:24:58;11.00;99.90
16829;DHT22;8531;48.078;11.968;2023-12-29T11:27:31;11.00;99.90
16829;DHT22;8531;48.078;11.968;2023-12-29T11:30:00;11.00;99.90
16829;DHT22;8531;48.078;11.968;2023-12-29T11:32:51;11.10;99.90
16829;DHT22;8531;48.078;11.968;2023-12-29T11:35:39;11.10;99.90
16829;DHT22;8531;48.078;11.968;2023-12-29T11:40:52;11.20;99.90
16829;DHT22;8531;48.078;11.968;2023-12-29T11:43:19;11.20;99.90
16829;DHT22;8531;48.078;11.968;2023-12-29T11:45:45;11.30;99.90
16829;DHT22;8531;48.078;11.968;2023-12-29T11:48:11;11.30;99.90
16829;DHT22;8531;48.078;11.968;2023-12-29T11:50:38;11.30;99.90
16829;DHT22;8531;48.078;11.968;2023-12-29T11:53:06;11.40;99.90
16829;DHT22;8531;48.078;11.968;2023-12-29T11:55:41;11.40;99.90
16829;DHT22;8531;48.078;11.968;2023-12-29T11:58:25;11.40;99.90
16829;DHT22;8531;48.078;11.968;2023-12-29T12:00:53;11.40;99.90
16829;DHT22;8531;48.078;11.968;2023-12-29T12:03:30;11.40;99.90
16829;DHT22;8531;48.078;11.968;2023-12-29T12:05:59;11.50;99.90
16829;DHT22;8531;48.078;11.968;2023-12-29T12:08:32;11.50;99.90
16829;DHT22;8531;48.078;11.968;2023-12-29T12:14:01;11.50;99.90
16829;DHT22;8531;48.078;11.968;2023-12-29T12:19:10;11.60;99.90
16829;DHT22;8531;48.078;11.968;2023-12-29T12:21:37;11.50;99.90
16829;DHT22;8531;48.078;11.968;2023-12-29T12:24:07;11.60;99.90
16829;DHT22;8531;48.078;11.968;2023-12-29T12:26:34;11.50;99.90
16829;DHT22;8531;48.078;11.968;2023-12-29T12:29:02;11.60;99.90
16829;DHT22;8531;48.078;11.968;2023-12-29T12:31:28;11.50;99.90
16829;DHT22;8531;48.078;11.968;2023-12-29T12:33:55;11.50;99.90
16829;DHT22;8531;48.078;11.968;2023-12-29T12:36:21;11.50;99.90
16829;DHT22;8531;48.078;11.968;2023-12-29T12:38:54;11.50;99.90
16829;DHT22;8531;48.078;11.968;2023-12-29T12:41:21;11.50;99.90
16829;DHT22;8531;48.078;11.968;2023-12-29T12:44:00;11.60;99.90
16829;DHT22;8531;48.078;11.968;2023-12-29T12:46:33;11.60;99.90
16829;DHT22;8531;48.078;11.968;2023-12-29T12:48:59;11.60;99.90
16829;DHT22;8531;48.078;11.968;2023-12-29T12:51:25;11.60;99.90
16829;DHT22;8531;48.078;11.968;2023-12-29T12:53:51;11.50;99.90
16829;DHT22;8531;48.078;11.968;2023-12-29T12:56:19;11.60;99.90
16829;DHT22;8531;48.078;11.968;2023-12-29T12:58:45;11.60;99.90
16829;DHT22;8531;48.078;11.968;2023-12-29T13:01:11;11.50;99.90
16829;DHT22;8531;48.078;11.968;2023-12-29T13:03:39;11.50;99.90
16829;DHT22;8531;48.078;11.968;2023-12-29T13:06:05;11.50;99.90
16829;DHT22;8531;48.078;11.968;2023-12-29T13:08:32;11.60;99.90
16829;DHT22;8531;48.078;11.968;2023-12-29T13:10:58;11.60;99.90
16829;DHT22;8531;48.078;11.968;2023-12-29T13:13:36;11.60;99.90
16829;DHT22;8531;48.078;11.968;2023-12-29T13:16:02;11.60;99.90
16829;DHT22;8531;48.078;11.968;2023-12-29T13:18:31;11.60;99.90
16829;DHT22;8531;48.078;11.968;2023-12-29T13:20:57;11.50;99.90
16829;DHT22;8531;48.078;11.968;2023-12-29T13:23:26;11.50;99.90
16829;DHT22;8531;48.078;11.968;2023-12-29T13:25:55;11.50;99.90
16829;DHT22;8531;48.078;11.968;2023-12-29T13:28:22;11.40;99.90
16829;DHT22;8531;48.078;11.968;2023-12-29T13:30:48;11.50;99.90
16829;DHT22;8531;48.078;11.968;2023-12-29T13:33:24;11.50;99.90
16829;DHT22;8531;48.078;11.968;2023-12-29T13:35:56;11.40;99.90
16829;DHT22;8531;48.078;11.968;2023-12-29T13:38:38;11.40;99.90
16829;DHT22;8531;48.078;11.968;2023-12-29T13:41:08;11.40;99.90
16829;DHT22;8531;48.078;11.968;2023-12-29T13:43:36;11.40;99.90
16829;DHT22;8531;48.078;11.968;2023-12-29T13:46:04;11.40;99.90
16829;DHT22;8531;48.078;11.968;2023-12-29T13:48:31;11.40;99.90
16829;DHT22;8531;48.078;11.968;2023-12-29T13:50:57;11.40;99.90
16829;DHT22;8531;48.078;11.968;2023-12-29T13:53:23;11.30;99.90
16829;DHT22;8531;48.078;11.968;2023-12-29T13:55:49;11.40;99.90
16829;DHT22;8531;48.078;11.968;2023-12-29T13:58:16;11.30;99.90
16829;DHT22;8531;48.078;11.968;2023-12-29T14:00:43;11.30;99.90
16829;DHT22;8531;48.078;11.968;2023-12-29T14:03:30;11.30;99.90
16829;DHT22;8531;48.078;11.968;2023-12-29T14:06:04;11.30;99.90
16829;DHT22;8531;48.078;11.968;2023-12-29T14:08:38;11.30;99.90
16829;DHT22;8531;48.078;11.968;2023-12-29T14:11:10;11.20;99.90
16829;DHT22;8531;48.078;11.968;2023-12-29T14:13:42;11.20;99.90
16829;DHT22;8531;48.078;11.968;2023-12-29T14:16:07;11.20;99.90
16829;DHT22;8531;48.078;11.968;2023-12-29T14:20:59;11.20;99.90
16829;DHT22;8531;48.078;11.968;2023-12-29T14:23:25;11.10;99.90
16829;DHT22;8531;48.078;11.968;2023-12-29T14:25:51;11.20;99.90
16829;DHT22;8531;48.078;11.968;2023-12-29T14:28:20;11.10;99.90
16829;DHT22;8531;48.078;11.968;2023-12-29T14:30:49;11.10;99.90
16829;DHT22;8531;48.078;11.968;2023-12-29T14:33:15;11.10;99.90
16829;DHT22;8531;48.078;11.968;2023-12-29T14:35:41;11.00;99.90
16829;DHT22;8531;48.078;11.968;2023-12-29T14:38:07;11.00;99.90
16829;DHT22;8531;48.078;11.968;2023-12-29T14:40:32;11.00;99.90
16829;DHT22;8531;48.078;11.968;2023-12-29T14:43:01;11.00;99.90
16829;DHT22;8531;48.078;11.968;2023-12-29T14:45:27;10.90;99.90
16829;DHT22;8531;48.078;11.968;2023-12-29T14:47:59;11.00;99.90
16829;DHT22;8531;48.078;11.968;2023-12-29T14:50:25;10.90;99.90
16829;DHT22;8531;48.078;11.968;2023-12-29T14:52:51;10.90;99.90
16829;DHT22;8531;48.078;11.968;2023-12-29T14:55:17;10.90;99.90
16829;DHT22;8531;48.078;11.968;2023-12-29T14:57:42;10.90;99.90
16829;DHT22;8531;48.078;11.968;2023-12-29T15:00:10;10.80;99.90
16829;DHT22;8531;48.078;11.968;2023-12-29T15:02:36;10.80;99.90
16829;DHT22;8531;48.078;11.968;2023-12-29T15:05:02;10.70;99.90
16829;DHT22;8531;48.078;11.968;2023-12-29T15:07:27;10.70;99.90
16829;DHT22;8531;48.078;11.968;2023-12-29T15:09:56;10.70;99.90
16829;DHT22;8531;48.078;11.968;2023-12-29T15:12:22;10.60;99.90
16829;DHT22;8531;48.078;11.968;2023-12-29T15:14:47;10.60;99.90
16829;DHT22;8531;48.078;11.968;2023-12-29T15:17:13;10.60;99.90
16829;DHT22;8531;48.078;11.968;2023-12-29T15:19:39;10.50;99.90
16829;DHT22;8531;48.078;11.968;2023-12-29T15:22:04;10.50;99.90
16829;DHT22;8531;48.078;11.968;2023-12-29T15:24:30;10.40;99.90
16829;DHT22;8531;48.078;11.968;2023-12-29T15:26:56;10.30;99.90
16829;DHT22;8531;48.078;11.968;2023-12-29T15:29:21;10.30;99.90
16829;DHT22;8531;48.078;11.968;2023-12-29T15:31:49;10.20;99.90
16829;DHT22;8531;48.078;11.968;2023-12-29T15:34:14;10.20;99.90
16829;DHT22;8531;48.078;11.968;2023-12-29T15:36:40;10.20;99.90
16829;DHT22;8531;48.078;11.968;2023-12-29T15:39:06;10.20;99.90
16829;DHT22;8531;48.078;11.968;2023-12-29T15:41:32;10.10;99.90
16829;DHT22;8531;48.078;11.968;2023-12-29T15:43:58;10.10;99.90
16829;DHT22;8531;48.078;11.968;2023-12-29T15:46:24;10.10;99.90
16829;DHT22;8531;48.078;11.968;2023-12-29T15:48:50;10.10;99.90
16829;DHT22;8531;48.078;11.968;2023-12-29T15:51:15;10.10;99.90
16829;DHT22;8531;48.078;11.968;2023-12-29T15:53:41;10.00;99.90
16829;DHT22;8531;48.078;11.968;2023-12-29T15:56:07;10.00;99.90
16829;DHT22;8531;48.078;11.968;2023-12-29T15:58:33;10.00;99.90
16829;DHT22;8531;48.078;11.968;2023-12-29T16:00:59;9.90;99.90